Time;durP1;ratioP1;P1;durP2;ratioP2;P2;SDS_P1;SDS_P2;PMS_P1;PMS_P2;Temp;Humidity;BMP_temperature;BMP_pressure;BME280_temperature;BME280_humidity;BME280_pressure;Samples;Min_cycle;Max_cycle;Signal;HPM_P1;HPM_P2
2022/12/28 00:01:47;;;;;;;11.40;5.90;;;;;;;;;;108551;1256;37559;-40
2022/12/28 00:04:17;;;;;;;11.90;5.40;;;;;;;;;;107783;1269;894183;-39
2022/12/28 00:06:49;;;;;;;11.50;5.00;;;;;;;;;;108569;1254;43645;-39
2022/12/28 00:09:19;;;;;;;11.50;5.50;;;;;;;;;;108568;1257;42559;-40
2022/12/28 00:11:49;;;;;;;11.40;5.30;;;;;;;;;;108545;1257;37334;-40
2022/12/28 00:14:19;;;;;;;11.00;5.20;;;;;;;;;;108587;1265;39715;-41
2022/12/28 00:16:53;;;;;;;10.50;5.10;;;;;;;;;;108577;1266;42991;-40
2022/12/28 00:19:22;;;;;;;11.40;5.10;;;;;;;;;;108560;1258;41245;-39
2022/12/28 00:21:54;;;;;;;11.50;5.10;;;;;;;;;;108508;1257;37490;-40
2022/12/28 00:24:26;;;;;;;10.40;4.90;;;;;;;;;;108565;1261;39903;-41
2022/12/28 00:26:59;;;;;;;10.90;4.90;;;;;;;;;;108530;1266;44033;-40
2022/12/28 00:29:29;;;;;;;10.20;5.10;;;;;;;;;;108561;1257;41535;-39
2022/12/28 00:32:00;;;;;;;9.40;4.80;;;;;;;;;;108537;1256;38647;-40
2022/12/28 00:34:30;;;;;;;9.80;4.80;;;;;;;;;;108599;1268;39840;-41
2022/12/28 00:37:05;;;;;;;8.70;4.30;;;;;;;;;;108608;1264;43886;-40
2022/12/28 00:39:43;;;;;;;10.80;4.70;;;;;;;;;;108598;1265;41540;-40
2022/12/28 00:42:15;;;;;;;10.10;4.60;;;;;;;;;;108550;1257;38499;-40
2022/12/28 00:44:48;;;;;;;9.50;4.50;;;;;;;;;;108557;1257;39659;-40
2022/12/28 00:47:18;;;;;;;;;;;;;;;;;;108576;1268;43439;-40
2022/12/28 00:49:48;;;;;;;9.30;4.40;;;;;;;;;;108595;1269;40778;-40
2022/12/28 00:52:18;;;;;;;8.70;4.50;;;;;;;;;;108523;1256;38961;-40
2022/12/28 00:54:48;;;;;;;9.60;4.30;;;;;;;;;;108594;1258;39503;-41
2022/12/28 00:57:18;;;;;;;8.90;4.10;;;;;;;;;;108556;1258;42079;-40
2022/12/28 00:59:48;;;;;;;7.40;3.90;;;;;;;;;;108557;1259;43194;-40
2022/12/28 01:02:21;;;;;;;8.00;4.10;;;;;;;;;;108537;1266;37695;-40
2022/12/28 01:04:51;;;;;;;7.70;4.20;;;;;;;;;;108571;1266;41543;-40
2022/12/28 01:07:21;;;;;;;8.70;4.50;;;;;;;;;;108539;1269;41805;-40
2022/12/28 01:09:51;;;;;;;8.30;3.70;;;;;;;;;;108589;1266;40957;-39
2022/12/28 01:12:21;;;;;;;8.40;3.90;;;;;;;;;;108528;1256;37297;-39
2022/12/28 01:14:57;;;;;;;8.00;3.80;;;;;;;;;;108565;1266;39813;-39
2022/12/28 01:17:29;;;;;;;8.50;4.30;;;;;;;;;;108567;1266;43972;-40
2022/12/28 01:20:00;;;;;;;7.70;3.60;;;;;;;;;;108598;1256;42738;-40
2022/12/28 01:22:32;;;;;;;7.80;4.00;;;;;;;;;;108529;1257;38452;-39
2022/12/28 01:25:06;;;;;;;9.30;4.10;;;;;;;;;;108312;1263;175756;-40
2022/12/28 01:27:39;;;;;;;8.20;3.70;;;;;;;;;;108592;1257;42723;-40
2022/12/28 01:30:13;;;;;;;7.40;3.30;;;;;;;;;;108566;1257;41487;-40
2022/12/28 01:32:43;;;;;;;8.50;3.80;;;;;;;;;;108577;1263;38608;-40
2022/12/28 01:35:13;;;;;;;7.80;3.80;;;;;;;;;;108436;1265;175792;-40
2022/12/28 01:37:43;;;;;;;7.60;3.30;;;;;;;;;;108552;1266;43469;-40
2022/12/28 01:40:16;;;;;;;7.30;3.60;;;;;;;;;;108567;1257;41319;-39
2022/12/28 01:42:48;;;;;;;6.50;3.40;;;;;;;;;;108587;1256;38541;-39
2022/12/28 01:45:23;;;;;;;6.50;3.30;;;;;;;;;;108577;1256;41031;-40
2022/12/28 01:47:56;;;;;;;6.90;3.60;;;;;;;;;;108590;1269;42503;-40
2022/12/28 01:50:30;;;;;;;6.50;3.50;;;;;;;;;;108541;1269;41282;-40
2022/12/28 01:53:04;;;;;;;7.10;3.40;;;;;;;;;;108564;1263;38745;-39
2022/12/28 01:55:40;;;;;;;6.40;3.40;;;;;;;;;;108562;1266;39759;-40
2022/12/28 01:58:14;;;;;;;5.90;2.80;;;;;;;;;;108578;1256;42659;-40
2022/12/28 02:00:44;;;;;;;6.60;3.20;;;;;;;;;;108571;1256;41455;-40
2022/12/28 02:03:19;;;;;;;7.30;3.40;;;;;;;;;;108539;1258;38721;-39
2022/12/28 02:05:53;;;;;;;8.00;3.40;;;;;;;;;;108594;1256;40182;-39
2022/12/28 02:08:31;;;;;;;8.50;4.40;;;;;;;;;;108603;1257;42115;-40
2022/12/28 02:11:05;;;;;;;8.80;4.00;;;;;;;;;;108560;1262;42526;-39
2022/12/28 02:13:39;;;;;;;7.70;4.10;;;;;;;;;;108560;1259;38363;-39
2022/12/28 02:16:11;;;;;;;8.40;5.00;;;;;;;;;;108554;1256;39649;-40
2022/12/28 02:18:44;;;;;;;10.50;4.50;;;;;;;;;;108541;1255;42513;-40
2022/12/28 02:21:29;;;;;;;9.60;4.20;;;;;;;;;;108581;1268;41480;-39
2022/12/28 02:24:53;;;;;;;7.40;4.00;;;;;;;;;;108526;1266;38533;-39
2022/12/28 02:27:56;;;;;;;8.50;3.80;;;;;;;;;;108485;1257;39890;-39
2022/12/28 02:30:27;;;;;;;10.90;4.40;;;;;;;;;;108528;1257;43700;-39
2022/12/28 02:33:07;;;;;;;10.60;4.50;;;;;;;;;;108572;1270;41584;-39
2022/12/28 02:35:47;;;;;;;11.50;4.50;;;;;;;;;;108547;1256;44390;-39
2022/12/28 02:38:30;;;;;;;8.60;3.80;;;;;;;;;;108560;1266;39429;-39
2022/12/28 02:41:05;;;;;;;9.30;4.20;;;;;;;;;;108583;1267;42422;-39
2022/12/28 02:43:39;;;;;;;9.50;4.40;;;;;;;;;;108510;1256;41433;-39
2022/12/28 02:52:22;;;;;;;8.50;3.80;;;;;;;;;;108558;1257;42497;-39
2022/12/28 02:58:32;;;;;;;8.70;4.50;;;;;;;;;;108557;1266;39690;-39
2022/12/28 03:01:21;;;;;;;9.90;4.20;;;;;;;;;;108607;1256;42031;-39
2022/12/28 03:04:04;;;;;;;10.60;4.50;;;;;;;;;;108590;1257;42534;-39
2022/12/28 03:09:40;;;;;;;9.70;3.70;;;;;;;;;;108543;1257;38468;-39
2022/12/28 03:12:18;;;;;;;8.90;4.80;;;;;;;;;;108557;1266;39658;-39
2022/12/28 03:14:56;;;;;;;7.70;3.50;;;;;;;;;;108524;1257;42419;-39
2022/12/28 03:31:56;;;;;;;8.90;3.70;;;;;;;;;;108551;1257;38512;-39
2022/12/28 03:34:30;;;;;;;6.40;3.40;;;;;;;;;;108536;1266;39792;-39
2022/12/28 03:37:09;;;;;;;7.20;3.90;;;;;;;;;;108621;1257;42414;-40
2022/12/28 03:39:47;;;;;;;7.10;3.30;;;;;;;;;;108617;1257;41396;-39
2022/12/28 03:45:22;;;;;;;7.90;3.80;;;;;;;;;;108621;1255;39695;-39
2022/12/28 03:48:15;;;;;;;8.10;3.30;;;;;;;;;;108573;1266;42529;-39
2022/12/28 03:50:51;;;;;;;7.20;3.80;;;;;;;;;;108590;1257;41507;-39
2022/12/28 03:53:29;;;;;;;7.80;3.80;;;;;;;;;;108581;1266;38548;-39
2022/12/28 03:56:16;;;;;;;7.70;3.50;;;;;;;;;;108569;1262;39765;-39
2022/12/28 03:58:46;;;;;;;6.50;3.60;;;;;;;;;;108477;1267;175447;-40
2022/12/28 04:01:16;;;;;;;6.90;3.70;;;;;;;;;;108649;1266;41376;-39
2022/12/28 04:03:47;;;;;;;6.10;3.20;;;;;;;;;;108669;1266;38539;-40
2022/12/28 04:06:19;;;;;;;6.70;3.20;;;;;;;;;;108575;1257;39792;-40
2022/12/28 04:08:50;;;;;;;6.80;3.70;;;;;;;;;;108564;1266;42950;-39
2022/12/28 04:11:20;;;;;;;7.60;3.70;;;;;;;;;;108565;1262;41211;-40
2022/12/28 04:13:52;;;;;;;6.80;3.10;;;;;;;;;;108581;1259;38388;-40
2022/12/28 04:16:22;;;;;;;7.30;3.40;;;;;;;;;;108535;1257;39656;-39
2022/12/28 04:18:54;;;;;;;7.20;3.50;;;;;;;;;;108632;1268;42228;-39
2022/12/28 04:21:25;;;;;;;5.90;3.00;;;;;;;;;;108630;1263;41240;-40
2022/12/28 04:23:57;;;;;;;7.00;3.40;;;;;;;;;;108629;1257;38677;-41
2022/12/28 04:26:27;;;;;;;6.80;3.40;;;;;;;;;;108614;1257;39746;-40
2022/12/28 04:29:00;;;;;;;7.50;3.30;;;;;;;;;;108586;1266;42136;-41
2022/12/28 04:31:33;;;;;;;6.70;3.20;;;;;;;;;;108554;1266;41621;-40
2022/12/28 04:34:08;;;;;;;6.40;3.60;;;;;;;;;;108561;1269;39697;-39
2022/12/28 04:36:42;;;;;;;6.90;3.30;;;;;;;;;;108533;1257;39866;-40
2022/12/28 04:39:12;;;;;;;6.20;3.20;;;;;;;;;;108620;1257;42727;-41
2022/12/28 04:41:42;;;;;;;5.40;3.00;;;;;;;;;;108667;1263;41345;-40
2022/12/28 04:44:11;;;;;;;6.80;3.20;;;;;;;;;;108627;1257;37370;-39
2022/12/28 04:46:41;;;;;;;5.60;3.00;;;;;;;;;;108619;1254;39416;-40
2022/12/28 04:49:12;;;;;;;7.70;3.40;;;;;;;;;;108588;1266;41985;-40
2022/12/28 04:51:44;;;;;;;7.40;3.40;;;;;;;;;;108602;1261;40903;-40
2022/12/28 04:54:17;;;;;;;5.90;2.90;;;;;;;;;;108588;1256;38420;-39
2022/12/28 04:56:49;;;;;;;6.30;2.90;;;;;;;;;;108547;1254;41001;-39
2022/12/28 04:59:20;;;;;;;6.80;3.50;;;;;;;;;;108598;1257;42582;-39
2022/12/28 05:01:50;;;;;;;5.80;3.30;;;;;;;;;;108628;1263;41414;-39
2022/12/28 05:04:23;;;;;;;6.10;3.40;;;;;;;;;;108660;1261;38583;-39
2022/12/28 05:06:53;;;;;;;6.30;2.70;;;;;;;;;;108569;1255;39678;-39
2022/12/28 05:09:23;;;;;;;6.30;3.40;;;;;;;;;;108562;1264;42328;-39
2022/12/28 05:11:55;;;;;;;6.70;3.20;;;;;;;;;;108569;1257;41413;-39
2022/12/28 05:14:25;;;;;;;6.00;3.40;;;;;;;;;;108611;1266;38442;-41
2022/12/28 05:16:55;;;;;;;6.40;3.30;;;;;;;;;;108556;1261;39475;-39
2022/12/28 05:19:26;;;;;;;5.80;3.20;;;;;;;;;;108631;1263;50190;-39
2022/12/28 05:21:56;;;;;;;7.20;3.00;;;;;;;;;;108603;1257;41467;-39
2022/12/28 05:24:26;;;;;;;6.50;2.70;;;;;;;;;;108523;1258;137630;-39
2022/12/28 05:26:56;;;;;;;6.10;2.90;;;;;;;;;;108580;1270;39510;-40
2022/12/28 05:29:26;;;;;;;5.80;3.00;;;;;;;;;;108521;1257;49508;-39
2022/12/28 05:31:56;;;;;;;6.70;3.10;;;;;;;;;;108579;1255;41193;-39
2022/12/28 05:34:27;;;;;;;7.10;3.10;;;;;;;;;;108581;1270;38565;-39
2022/12/28 05:37:00;;;;;;;5.40;2.60;;;;;;;;;;108576;1260;39609;-39
2022/12/28 05:39:32;;;;;;;6.20;2.90;;;;;;;;;;108461;1257;175732;-39
2022/12/28 05:42:03;;;;;;;6.00;2.80;;;;;;;;;;108526;1260;175437;-40
2022/12/28 05:44:33;;;;;;;6.80;2.90;;;;;;;;;;108620;1270;38486;-40
2022/12/28 05:47:06;;;;;;;6.60;3.00;;;;;;;;;;108621;1257;39885;-39
2022/12/28 05:49:40;;;;;;;5.20;2.90;;;;;;;;;;108528;1257;42529;-40
2022/12/28 05:52:10;;;;;;;5.80;2.90;;;;;;;;;;108550;1258;41544;-40
2022/12/28 05:54:41;;;;;;;5.60;2.80;;;;;;;;;;108563;1266;40823;-39
2022/12/28 05:57:13;;;;;;;6.40;3.40;;;;;;;;;;108599;1257;39383;-40
2022/12/28 05:59:46;;;;;;;5.10;2.70;;;;;;;;;;108570;1256;43714;-39
2022/12/28 06:02:24;;;;;;;5.10;2.50;;;;;;;;;;108589;1262;41311;-40
2022/12/28 06:04:55;;;;;;;5.80;2.90;;;;;;;;;;108620;1257;39747;-39
2022/12/28 06:07:25;;;;;;;5.70;2.70;;;;;;;;;;108653;1257;39654;-39
2022/12/28 06:09:55;;;;;;;5.80;2.90;;;;;;;;;;108540;1257;42051;-41
2022/12/28 06:12:25;;;;;;;5.80;2.90;;;;;;;;;;108574;1257;42802;-39
2022/12/28 06:14:58;;;;;;;6.10;2.90;;;;;;;;;;108497;1257;192039;-40
2022/12/28 06:17:29;;;;;;;6.40;2.90;;;;;;;;;;108360;1260;41152;-40
2022/12/28 06:20:01;;;;;;;5.20;2.90;;;;;;;;;;108581;1266;42530;-40
2022/12/28 06:22:31;;;;;;;6.10;3.10;;;;;;;;;;108614;1270;41511;-40
2022/12/28 06:25:02;;;;;;;6.10;3.20;;;;;;;;;;108595;1257;38821;-40
2022/12/28 06:27:32;;;;;;;5.70;2.90;;;;;;;;;;108633;1266;41201;-41
2022/12/28 06:30:07;;;;;;;4.60;2.80;;;;;;;;;;108583;1264;42272;-40
2022/12/28 06:32:37;;;;;;;6.60;3.00;;;;;;;;;;108578;1263;41342;-40
2022/12/28 06:35:09;;;;;;;4.80;2.60;;;;;;;;;;108558;1268;39955;-39
2022/12/28 06:37:39;;;;;;;4.60;2.50;;;;;;;;;;107835;1265;895054;-40
2022/12/28 06:40:11;;;;;;;6.00;2.80;;;;;;;;;;108571;1267;43815;-40
2022/12/28 06:42:41;;;;;;;5.60;2.70;;;;;;;;;;108619;1257;41594;-39
2022/12/28 06:45:12;;;;;;;6.90;3.20;;;;;;;;;;108646;1267;38477;-40
2022/12/28 06:47:46;;;;;;;5.20;2.60;;;;;;;;;;108511;1257;39762;-39
2022/12/28 06:50:16;;;;;;;6.10;3.10;;;;;;;;;;108576;1256;42598;-39
2022/12/28 06:52:49;;;;;;;5.60;3.20;;;;;;;;;;108587;1257;41432;-39
2022/12/28 06:55:19;;;;;;;6.50;3.30;;;;;;;;;;108592;1271;38658;-40
2022/12/28 06:57:52;;;;;;;4.90;3.10;;;;;;;;;;108625;1264;39384;-40
2022/12/28 07:00:23;;;;;;;6.40;2.80;;;;;;;;;;108496;1257;175379;-39
2022/12/28 07:02:59;;;;;;;6.00;3.20;;;;;;;;;;108624;1266;41511;-41
2022/12/28 07:05:31;;;;;;;5.70;2.90;;;;;;;;;;108507;1266;38799;-40
2022/12/28 07:08:05;;;;;;;5.50;2.80;;;;;;;;;;108567;1270;39712;-39
2022/12/28 07:10:45;;;;;;;5.00;2.80;;;;;;;;;;108540;1268;42983;-39
2022/12/28 07:13:17;;;;;;;7.00;3.50;;;;;;;;;;108573;1266;41494;-40
2022/12/28 07:15:53;;;;;;;7.30;3.10;;;;;;;;;;108595;1254;38573;-39
2022/12/28 07:18:25;;;;;;;6.20;3.30;;;;;;;;;;108442;1259;175702;-39
2022/12/28 07:21:01;;;;;;;7.30;3.50;;;;;;;;;;108572;1257;42710;-40
2022/12/28 07:23:31;;;;;;;10.30;4.60;;;;;;;;;;108645;1261;41723;-40
2022/12/28 07:26:12;;;;;;;10.50;5.10;;;;;;;;;;108653;1258;39575;-40
2022/12/28 07:28:46;;;;;;;11.10;5.20;;;;;;;;;;108613;1270;39980;-39
2022/12/28 07:31:19;;;;;;;12.00;5.10;;;;;;;;;;108533;1259;43865;-39
2022/12/28 07:33:51;;;;;;;12.40;5.20;;;;;;;;;;108583;1266;42794;-40
2022/12/28 07:36:23;;;;;;;11.60;5.50;;;;;;;;;;108461;1260;175683;-40
2022/12/28 07:38:54;;;;;;;9.70;5.10;;;;;;;;;;108586;1270;39609;-40
2022/12/28 07:41:27;;;;;;;10.50;4.80;;;;;;;;;;108555;1268;42638;-41
2022/12/28 07:43:56;;;;;;;;;;;;;;;;;;108633;1266;41532;-42
2022/12/28 07:46:29;;;;;;;14.20;6.10;;;;;;;;;;108627;1261;37626;-42
2022/12/28 07:49:01;;;;;;;9.90;5.20;;;;;;;;;;108641;1266;39972;-40
2022/12/28 07:51:36;;;;;;;10.30;5.20;;;;;;;;;;108525;1260;42646;-37
2022/12/28 07:54:09;;;;;;;9.30;5.50;;;;;;;;;;108610;1260;41349;-37
2022/12/28 07:56:40;;;;;;;9.20;5.20;;;;;;;;;;108640;1257;38532;-37
2022/12/28 07:59:12;;;;;;;9.60;5.30;;;;;;;;;;108614;1270;39818;-37
2022/12/28 08:01:42;;;;;;;11.20;5.20;;;;;;;;;;108602;1257;42731;-37
2022/12/28 08:04:16;;;;;;;10.70;5.20;;;;;;;;;;108634;1257;41968;-39
2022/12/28 08:06:50;;;;;;;10.10;4.70;;;;;;;;;;108657;1269;38689;-40
2022/12/28 08:09:18;;;;;;;;;;;;;;;;;;108626;1257;39654;-40
2022/12/28 08:11:50;;;;;;;12.50;5.50;;;;;;;;;;108566;1257;43380;-40
2022/12/28 08:14:20;;;;;;;9.20;5.10;;;;;;;;;;108566;1270;42822;-41
2022/12/28 08:16:53;;;;;;;8.60;4.30;;;;;;;;;;108574;1270;38855;-40
2022/12/28 08:19:25;;;;;;;10.30;5.10;;;;;;;;;;108562;1270;39399;-40
2022/12/28 08:21:55;;;;;;;11.20;5.20;;;;;;;;;;108573;1257;42582;-40
2022/12/28 08:24:25;;;;;;;10.50;4.70;;;;;;;;;;108668;1266;41572;-40
2022/12/28 08:26:56;;;;;;;11.20;5.40;;;;;;;;;;108658;1270;38576;-40
2022/12/28 08:29:27;;;;;;;9.80;5.50;;;;;;;;;;108624;1266;40170;-40
2022/12/28 08:31:56;;;;;;;9.20;5.40;;;;;;;;;;108609;1258;42528;-40
2022/12/28 08:34:29;;;;;;;11.00;4.80;;;;;;;;;;108639;1262;41700;-35
2022/12/28 08:37:02;;;;;;;11.10;5.10;;;;;;;;;;108040;1268;38839;-38
2022/12/28 08:39:32;;;;;;;8.80;4.80;;;;;;;;;;108017;1265;40379;-38
2022/12/28 08:42:05;;;;;;;8.50;4.30;;;;;;;;;;108090;1262;43505;-41
2022/12/28 08:44:35;;;;;;;8.20;4.50;;;;;;;;;;108081;1262;41546;-40
2022/12/28 08:47:06;;;;;;;8.70;4.70;;;;;;;;;;108090;1270;37827;-41
2022/12/28 08:49:36;;;;;;;9.60;4.70;;;;;;;;;;108167;1262;40088;-40
2022/12/28 08:52:07;;;;;;;9.40;4.20;;;;;;;;;;108072;1262;43846;-39
2022/12/28 08:54:39;;;;;;;7.50;4.50;;;;;;;;;;108171;1262;41771;-39
2022/12/28 08:57:09;;;;;;;9.00;4.60;;;;;;;;;;108223;1272;38537;-38
2022/12/28 08:59:44;;;;;;;8.00;4.40;;;;;;;;;;108206;1271;40055;-39
2022/12/28 09:02:20;;;;;;;8.80;4.50;;;;;;;;;;108159;1260;43922;-37
2022/12/28 09:04:51;;;;;;;7.10;4.20;;;;;;;;;;108241;1270;41605;-39
2022/12/28 09:07:21;;;;;;;8.00;4.60;;;;;;;;;;108293;1269;37832;-36
2022/12/28 09:09:53;;;;;;;7.50;4.20;;;;;;;;;;108130;1260;40582;-37
2022/12/28 09:12:26;;;;;;;8.90;5.00;;;;;;;;;;108098;1262;44279;-39
2022/12/28 09:14:56;;;;;;;8.60;4.10;;;;;;;;;;108054;1262;41721;-39
2022/12/28 09:17:26;;;;;;;9.30;4.60;;;;;;;;;;108059;1262;37949;-41
2022/12/28 09:19:59;;;;;;;8.40;4.90;;;;;;;;;;108050;1262;40000;-39
2022/12/28 09:22:32;;;;;;;8.00;4.40;;;;;;;;;;108056;1262;44185;-40
2022/12/28 09:25:03;;;;;;;7.80;4.50;;;;;;;;;;108135;1270;41609;-43
2022/12/28 09:27:33;;;;;;;8.60;4.30;;;;;;;;;;108174;1262;38605;-41
2022/12/28 09:30:06;;;;;;;8.30;4.60;;;;;;;;;;108113;1262;41107;-38
2022/12/28 09:32:37;;;;;;;7.50;4.00;;;;;;;;;;108148;1266;43099;-41
2022/12/28 09:35:08;;;;;;;8.60;4.60;;;;;;;;;;108117;1261;41718;-40
2022/12/28 09:37:38;;;;;;;7.60;4.30;;;;;;;;;;108101;1272;38680;-42
2022/12/28 09:40:16;;;;;;;8.40;4.20;;;;;;;;;;108115;1261;40131;-41
2022/12/28 09:42:46;;;;;;;8.40;4.40;;;;;;;;;;108138;1262;42983;-40
2022/12/28 09:45:17;;;;;;;6.50;4.20;;;;;;;;;;108139;1270;41017;-44
2022/12/28 09:47:54;;;;;;;7.50;4.20;;;;;;;;;;108151;1270;38612;-42
2022/12/28 09:50:31;;;;;;;6.60;4.30;;;;;;;;;;108145;1268;39970;-42
2022/12/28 09:53:22;;;;;;;8.10;4.50;;;;;;;;;;108164;1261;42593;-42
2022/12/28 09:56:00;;;;;;;7.00;4.00;;;;;;;;;;108183;1261;42992;-43
2022/12/28 09:58:36;;;;;;;7.30;4.00;;;;;;;;;;108168;1259;41105;-41
2022/12/28 10:01:13;;;;;;;6.90;4.20;;;;;;;;;;108168;1268;39837;-43
2022/12/28 10:03:45;;;;;;;6.90;3.80;;;;;;;;;;108134;1259;42622;-42
2022/12/28 10:06:20;;;;;;;5.70;3.60;;;;;;;;;;108157;1257;42861;-42
2022/12/28 10:08:54;;;;;;;6.60;3.70;;;;;;;;;;108176;1270;38584;-43
2022/12/28 10:11:27;;;;;;;7.40;3.90;;;;;;;;;;108282;1272;40059;-43
2022/12/28 10:14:00;;;;;;;5.70;3.20;;;;;;;;;;108223;1272;42532;-44
2022/12/28 10:16:35;;;;;;;7.20;4.10;;;;;;;;;;108166;1270;41487;-43
2022/12/28 10:19:08;;;;;;;9.00;4.10;;;;;;;;;;108159;1272;38586;-43
2022/12/28 10:21:38;;;;;;;6.60;3.70;;;;;;;;;;108203;1262;39929;-42
2022/12/28 10:24:12;;;;;;;6.60;3.80;;;;;;;;;;108178;1260;43848;-42
2022/12/28 10:27:06;;;;;;;6.10;3.50;;;;;;;;;;108233;1261;41436;-42
2022/12/28 10:29:36;;;;;;;7.20;3.80;;;;;;;;;;108146;1269;175510;-42
2022/12/28 10:32:10;;;;;;;7.00;3.70;;;;;;;;;;108253;1262;39492;-42
2022/12/28 10:34:57;;;;;;;6.00;3.10;;;;;;;;;;108157;1261;42521;-42
2022/12/28 10:37:30;;;;;;;6.20;3.60;;;;;;;;;;108196;1262;41586;-42
2022/12/28 10:40:04;;;;;;;6.50;3.50;;;;;;;;;;108164;1266;41341;-42
2022/12/28 10:42:40;;;;;;;5.90;3.40;;;;;;;;;;108173;1270;40021;-43
2022/12/28 10:45:21;;;;;;;7.10;3.60;;;;;;;;;;108118;1259;42521;-43
2022/12/28 10:47:53;;;;;;;5.80;3.40;;;;;;;;;;108180;1257;41538;-43
2022/12/28 10:50:46;;;;;;;5.70;3.30;;;;;;;;;;108175;1262;38527;-45
2022/12/28 10:53:28;;;;;;;6.20;3.40;;;;;;;;;;108173;1267;39936;-43
2022/12/28 10:56:22;;;;;;;6.60;3.20;;;;;;;;;;108108;1262;48146;-44
2022/12/28 10:58:54;;;;;;;6.70;3.40;;;;;;;;;;108047;1262;42779;-43
2022/12/28 11:01:29;;;;;;;6.60;3.30;;;;;;;;;;108018;1259;39973;-44
2022/12/28 11:04:06;;;;;;;7.00;3.20;;;;;;;;;;108066;1267;39972;-44
2022/12/28 11:06:51;;;;;;;6.20;3.10;;;;;;;;;;108132;1260;42628;-43
2022/12/28 11:09:24;;;;;;;6.10;3.10;;;;;;;;;;108092;1260;41654;-42
2022/12/28 11:12:16;;;;;;;6.60;3.10;;;;;;;;;;108168;1268;38608;-43
2022/12/28 11:14:46;;;;;;;6.60;3.30;;;;;;;;;;108120;1262;39947;-44
2022/12/28 11:17:19;;;;;;;7.30;3.30;;;;;;;;;;108035;1270;42498;-43
2022/12/28 11:19:53;;;;;;;6.50;3.20;;;;;;;;;;108059;1271;41508;-42
2022/12/28 11:22:26;;;;;;;6.30;3.20;;;;;;;;;;108032;1267;38605;-43
2022/12/28 11:25:00;;;;;;;5.60;3.20;;;;;;;;;;107923;1265;40506;-44
2022/12/28 11:27:30;;;;;;;5.50;3.30;;;;;;;;;;108157;1271;42835;-42
2022/12/28 11:30:00;;;;;;;6.50;3.30;;;;;;;;;;108137;1272;43509;-44
2022/12/28 11:32:36;;;;;;;5.70;2.80;;;;;;;;;;108142;1271;37527;-42
2022/12/28 11:35:16;;;;;;;7.30;3.20;;;;;;;;;;108074;1262;39951;-40
2022/12/28 11:37:55;;;;;;;6.30;3.20;;;;;;;;;;108031;1263;42738;-40
2022/12/28 11:40:51;;;;;;;5.90;3.10;;;;;;;;;;107987;1272;41442;-42
2022/12/28 11:43:49;;;;;;;6.90;3.70;;;;;;;;;;108027;1261;38648;-40
2022/12/28 11:46:41;;;;;;;8.20;5.70;;;;;;;;;;108166;1263;40128;-40
2022/12/28 11:49:40;;;;;;;9.30;5.50;;;;;;;;;;108274;1256;42654;-41
2022/12/28 11:52:45;;;;;;;8.70;6.30;;;;;;;;;;107802;1263;41532;-41
2022/12/28 11:55:42;;;;;;;8.00;6.50;;;;;;;;;;108291;1260;38686;-39
2022/12/28 11:59:02;;;;;;;9.40;6.10;;;;;;;;;;108149;1271;41070;-39
2022/12/28 12:01:47;;;;;;;8.30;6.20;;;;;;;;;;108106;1262;42670;-43
2022/12/28 12:04:42;;;;;;;8.00;6.20;;;;;;;;;;108148;1262;41647;-42
2022/12/28 12:07:46;;;;;;;10.50;6.20;;;;;;;;;;108190;1260;38714;-41
2022/12/28 12:10:34;;;;;;;8.40;5.80;;;;;;;;;;108265;1263;41285;-41
2022/12/28 12:13:45;;;;;;;7.90;5.90;;;;;;;;;;108285;1262;42741;-42
2022/12/28 12:16:25;;;;;;;7.90;5.90;;;;;;;;;;108185;1262;41573;-43
2022/12/28 12:18:58;;;;;;;8.30;6.00;;;;;;;;;;108165;1267;38632;-43
2022/12/28 12:21:36;;;;;;;8.20;5.70;;;;;;;;;;108163;1260;39874;-43
2022/12/28 12:24:25;;;;;;;7.90;5.60;;;;;;;;;;108136;1274;42849;-43
2022/12/28 12:27:02;;;;;;;8.90;5.70;;;;;;;;;;108150;1260;41550;-42
2022/12/28 12:29:46;;;;;;;8.10;5.90;;;;;;;;;;108267;1269;39932;-42
2022/12/28 12:32:23;;;;;;;7.90;5.60;;;;;;;;;;108232;1267;39849;-44
2022/12/28 12:34:56;;;;;;;8.60;6.00;;;;;;;;;;108242;1257;42738;-42
2022/12/28 12:37:47;;;;;;;;;;;;;;;;;;108159;1262;41644;-41
2022/12/28 12:40:52;;;;;;;11.30;6.40;;;;;;;;;;108146;1271;39915;-42
2022/12/28 12:43:32;;;;;;;9.90;6.50;;;;;;;;;;108171;1273;40042;-42
2022/12/28 12:46:48;;;;;;;8.90;6.10;;;;;;;;;;108131;1258;43910;-44
2022/12/28 12:49:37;;;;;;;7.00;5.80;;;;;;;;;;107923;1273;41691;-45
2022/12/28 12:52:35;;;;;;;8.40;5.80;;;;;;;;;;108254;1261;39948;-47
2022/12/28 12:55:39;;;;;;;6.80;5.00;;;;;;;;;;108227;1257;40041;-45
2022/12/28 12:58:23;;;;;;;7.80;5.70;;;;;;;;;;108107;1262;44159;-45
2022/12/28 13:01:22;;;;;;;7.60;5.60;;;;;;;;;;108163;1262;41693;-43
2022/12/28 13:03:58;;;;;;;9.00;5.90;;;;;;;;;;108144;1272;39970;-45
2022/12/28 13:06:31;;;;;;;8.60;5.30;;;;;;;;;;108142;1256;39860;-45
2022/12/28 13:09:07;;;;;;;8.30;5.00;;;;;;;;;;108241;1270;43910;-43
2022/12/28 13:11:39;;;;;;;6.90;5.20;;;;;;;;;;108294;1273;41486;-48
2022/12/28 13:14:19;;;;;;;8.70;5.60;;;;;;;;;;108279;1260;38436;-43
2022/12/28 13:16:51;;;;;;;7.50;5.50;;;;;;;;;;108204;1269;40158;-42
2022/12/28 13:19:24;;;;;;;8.50;5.20;;;;;;;;;;108194;1262;42674;-43
2022/12/28 13:21:54;;;;;;;10.80;5.20;;;;;;;;;;108156;1262;41393;-45
2022/12/28 13:24:26;;;;;;;8.60;5.40;;;;;;;;;;107923;1263;346086;-41
2022/12/28 13:26:58;;;;;;;8.00;5.40;;;;;;;;;;108148;1257;40190;-41
2022/12/28 13:29:32;;;;;;;9.30;5.40;;;;;;;;;;108237;1266;43906;-41
2022/12/28 13:32:01;;;;;;;8.50;5.00;;;;;;;;;;108259;1262;41558;-44
2022/12/28 13:34:33;;;;;;;10.30;5.10;;;;;;;;;;108249;1271;37659;-40
2022/12/28 13:37:13;;;;;;;7.80;4.90;;;;;;;;;;108238;1263;39512;-45
2022/12/28 13:39:43;;;;;;;10.90;5.10;;;;;;;;;;108163;1272;42650;-42
2022/12/28 13:42:17;;;;;;;7.40;4.60;;;;;;;;;;108141;1272;41106;-43
2022/12/28 13:44:55;;;;;;;9.90;5.40;;;;;;;;;;108053;1272;38817;-43
2022/12/28 13:47:31;;;;;;;7.40;4.80;;;;;;;;;;108145;1257;39791;-47
2022/12/28 13:50:06;;;;;;;9.20;4.70;;;;;;;;;;108249;1263;42475;-44
2022/12/28 13:52:43;;;;;;;7.60;4.40;;;;;;;;;;108274;1266;41604;-42
2022/12/28 13:55:15;;;;;;;7.80;4.70;;;;;;;;;;108211;1273;39724;-42
2022/12/28 13:58:46;;;;;;;8.80;4.90;;;;;;;;;;108150;1260;41180;-38
2022/12/28 14:01:21;;;;;;;8.60;5.10;;;;;;;;;;108119;1273;43901;-39
2022/12/28 14:03:54;;;;;;;8.20;4.80;;;;;;;;;;108166;1270;42762;-43
2022/12/28 14:06:25;;;;;;;6.70;4.40;;;;;;;;;;108029;1273;38629;-47
2022/12/28 14:08:55;;;;;;;7.40;5.10;;;;;;;;;;108068;1263;39523;-48
2022/12/28 14:11:32;;;;;;;8.90;4.80;;;;;;;;;;108281;1262;42705;-40
2022/12/28 14:14:04;;;;;;;7.60;4.50;;;;;;;;;;108244;1272;41493;-39
2022/12/28 14:16:35;;;;;;;8.10;4.60;;;;;;;;;;108222;1267;38535;-41
2022/12/28 14:19:07;;;;;;;8.00;4.40;;;;;;;;;;108152;1272;40016;-40
2022/12/28 14:21:42;;;;;;;7.70;4.30;;;;;;;;;;108153;1262;42660;-43
2022/12/28 14:24:15;;;;;;;6.60;4.20;;;;;;;;;;108176;1273;41364;-43
2022/12/28 14:26:50;;;;;;;7.40;4.10;;;;;;;;;;108162;1274;38534;-42
2022/12/28 14:29:28;;;;;;;7.10;4.00;;;;;;;;;;107392;1262;911901;-43
2022/12/28 14:32:00;;;;;;;6.50;4.10;;;;;;;;;;108107;1273;175710;-44
2022/12/28 14:34:33;;;;;;;7.60;4.60;;;;;;;;;;108248;1271;41537;-42
2022/12/28 14:37:04;;;;;;;7.00;4.30;;;;;;;;;;108289;1269;38633;-39
2022/12/28 14:39:43;;;;;;;7.90;4.60;;;;;;;;;;108113;1262;39451;-46
2022/12/28 14:42:24;;;;;;;7.20;4.40;;;;;;;;;;108055;1263;42597;-43
2022/12/28 14:44:58;;;;;;;7.60;4.20;;;;;;;;;;108070;1271;41443;-43
2022/12/28 14:47:38;;;;;;;;;;;;;;;;;;108174;1262;39914;-42
2022/12/28 14:50:21;;;;;;;6.40;4.10;;;;;;;;;;108091;1262;40075;-44
2022/12/28 14:53:02;;;;;;;7.40;4.20;;;;;;;;;;108151;1262;45243;-42
2022/12/28 14:55:40;;;;;;;6.60;3.80;;;;;;;;;;108184;1262;41526;-43
2022/12/28 14:58:22;;;;;;;7.30;4.00;;;;;;;;;;108143;1272;38332;-43
2022/12/28 15:00:59;;;;;;;7.30;4.10;;;;;;;;;;108088;1260;46842;-43
2022/12/28 15:03:31;;;;;;;7.60;4.10;;;;;;;;;;107978;1271;42896;-42
2022/12/28 15:06:02;;;;;;;7.00;3.90;;;;;;;;;;107979;1265;41700;-43
2022/12/28 15:08:34;;;;;;;7.70;4.10;;;;;;;;;;107962;1275;39125;-43
2022/12/28 15:11:04;;;;;;;8.00;4.30;;;;;;;;;;108087;1273;40002;-43
2022/12/28 15:13:40;;;;;;;6.70;3.90;;;;;;;;;;108029;1272;177710;-43
2022/12/28 15:16:13;;;;;;;6.70;4.20;;;;;;;;;;108204;1260;41203;-44
2022/12/28 15:18:43;;;;;;;6.50;4.00;;;;;;;;;;108242;1263;39840;-44
2022/12/28 15:21:19;;;;;;;7.10;4.20;;;;;;;;;;108134;1263;41106;-43
2022/12/28 15:23:51;;;;;;;6.00;3.70;;;;;;;;;;108175;1263;43777;-43
2022/12/28 15:26:26;;;;;;;5.50;3.60;;;;;;;;;;108161;1262;42727;-43
2022/12/28 15:29:04;;;;;;;5.80;3.50;;;;;;;;;;108124;1263;38306;-43
2022/12/28 15:31:34;;;;;;;6.30;4.00;;;;;;;;;;108313;1270;46475;-43
2022/12/28 15:34:04;;;;;;;6.30;3.60;;;;;;;;;;108237;1261;42053;-44
2022/12/28 15:36:41;;;;;;;7.50;4.00;;;;;;;;;;108226;1272;41408;-44
2022/12/28 15:39:13;;;;;;;6.10;3.70;;;;;;;;;;108265;1262;38742;-43
2022/12/28 15:41:46;;;;;;;5.40;3.60;;;;;;;;;;108152;1262;39718;-43
2022/12/28 15:44:19;;;;;;;6.50;3.60;;;;;;;;;;108090;1263;43897;-43
2022/12/28 15:46:49;;;;;;;;;;;;;;;;;;108040;1263;175378;-43